sensor_id;sensor_type;location;lat;lon;timestamp;P1;durP1;ratioP1;P2;durP2;ratioP2
56824;SDS011;42705;50.326;18.772;2023-04-06T00:02:56;74.80;;;28.50;;
56824;SDS011;42705;50.326;18.772;2023-04-06T00:08:18;73.70;;;31.00;;
56824;SDS011;42705;50.326;18.772;2023-04-06T00:13:42;68.40;;;28.20;;
56824;SDS011;42705;50.326;18.772;2023-04-06T00:19:04;55.40;;;24.20;;
56824;SDS011;42705;50.326;18.772;2023-04-06T00:24:26;56.60;;;23.10;;
56824;SDS011;42705;50.326;18.772;2023-04-06T00:29:48;46.50;;;21.80;;
56824;SDS011;42705;50.326;18.772;2023-04-06T00:35:10;43.90;;;18.90;;
56824;SDS011;42705;50.326;18.772;2023-04-06T00:40:32;41.20;;;20.30;;
56824;SDS011;42705;50.326;18.772;2023-04-06T00:45:56;43.60;;;18.90;;
56824;SDS011;42705;50.326;18.772;2023-04-06T00:51:18;39.40;;;19.70;;
56824;SDS011;42705;50.326;18.772;2023-04-06T00:56:41;36.20;;;17.60;;
56824;SDS011;42705;50.326;18.772;2023-04-06T01:02:04;43.40;;;18.40;;
56824;SDS011;42705;50.326;18.772;2023-04-06T01:07:31;46.00;;;19.60;;
56824;SDS011;42705;50.326;18.772;2023-04-06T01:12:59;42.60;;;19.50;;
56824;SDS011;42705;50.326;18.772;2023-04-06T01:18:42;42.90;;;19.10;;
56824;SDS011;42705;50.326;18.772;2023-04-06T01:24:09;40.80;;;20.00;;
56824;SDS011;42705;50.326;18.772;2023-04-06T01:29:54;58.10;;;22.70;;
56824;SDS011;42705;50.326;18.772;2023-04-06T01:35:39;41.40;;;18.90;;
56824;SDS011;42705;50.326;18.772;2023-04-06T01:41:08;45.20;;;20.40;;
56824;SDS011;42705;50.326;18.772;2023-04-06T01:46:39;42.40;;;19.10;;
56824;SDS011;42705;50.326;18.772;2023-04-06T01:57:25;44.20;;;19.40;;
56824;SDS011;42705;50.326;18.772;2023-04-06T02:02:54;40.10;;;18.80;;
56824;SDS011;42705;50.326;18.772;2023-04-06T02:08:19;54.80;;;21.80;;
56824;SDS011;42705;50.326;18.772;2023-04-06T02:13:42;49.70;;;21.80;;
56824;SDS011;42705;50.326;18.772;2023-04-06T02:19:04;48.90;;;23.60;;
56824;SDS011;42705;50.326;18.772;2023-04-06T02:24:26;47.10;;;23.00;;
56824;SDS011;42705;50.326;18.772;2023-04-06T02:29:48;57.30;;;24.40;;
56824;SDS011;42705;50.326;18.772;2023-04-06T02:35:13;44.50;;;20.80;;
56824;SDS011;42705;50.326;18.772;2023-04-06T02:40:36;47.30;;;22.30;;
56824;SDS011;42705;50.326;18.772;2023-04-06T02:46:09;50.90;;;22.60;;
56824;SDS011;42705;50.326;18.772;2023-04-06T02:51:33;38.60;;;19.80;;
56824;SDS011;42705;50.326;18.772;2023-04-06T02:57:07;45.20;;;20.60;;
56824;SDS011;42705;50.326;18.772;2023-04-06T03:02:35;50.20;;;21.80;;
56824;SDS011;42705;50.326;18.772;2023-04-06T03:08:02;49.30;;;21.50;;
56824;SDS011;42705;50.326;18.772;2023-04-06T03:13:33;52.10;;;23.10;;
56824;SDS011;42705;50.326;18.772;2023-04-06T03:18:55;59.00;;;23.50;;
56824;SDS011;42705;50.326;18.772;2023-04-06T03:24:17;56.40;;;23.60;;
56824;SDS011;42705;50.326;18.772;2023-04-06T03:29:39;61.50;;;25.70;;
56824;SDS011;42705;50.326;18.772;2023-04-06T03:35:01;59.40;;;25.30;;
56824;SDS011;42705;50.326;18.772;2023-04-06T03:40:24;55.10;;;25.40;;
56824;SDS011;42705;50.326;18.772;2023-04-06T03:45:46;62.20;;;25.90;;
56824;SDS011;42705;50.326;18.772;2023-04-06T03:51:09;55.30;;;25.40;;
56824;SDS011;42705;50.326;18.772;2023-04-06T03:56:31;67.00;;;26.30;;
56824;SDS011;42705;50.326;18.772;2023-04-06T04:01:53;59.90;;;25.20;;
56824;SDS011;42705;50.326;18.772;2023-04-06T04:07:15;56.90;;;24.60;;
56824;SDS011;42705;50.326;18.772;2023-04-06T04:12:37;52.30;;;23.90;;
56824;SDS011;42705;50.326;18.772;2023-04-06T04:17:59;47.90;;;23.10;;
56824;SDS011;42705;50.326;18.772;2023-04-06T04:23:21;53.60;;;23.70;;
56824;SDS011;42705;50.326;18.772;2023-04-06T04:28:44;56.30;;;23.70;;
56824;SDS011;42705;50.326;18.772;2023-04-06T04:34:06;53.60;;;23.50;;
56824;SDS011;42705;50.326;18.772;2023-04-06T04:39:29;58.40;;;26.70;;
56824;SDS011;42705;50.326;18.772;2023-04-06T04:44:56;60.40;;;26.60;;
56824;SDS011;42705;50.326;18.772;2023-04-06T04:50:37;64.30;;;29.30;;
56824;SDS011;42705;50.326;18.772;2023-04-06T04:55:59;66.40;;;29.80;;
56824;SDS011;42705;50.326;18.772;2023-04-06T05:01:22;69.10;;;28.70;;
56824;SDS011;42705;50.326;18.772;2023-04-06T05:06:45;73.90;;;31.20;;
56824;SDS011;42705;50.326;18.772;2023-04-06T05:12:08;75.20;;;31.40;;
56824;SDS011;42705;50.326;18.772;2023-04-06T05:17:35;74.70;;;30.70;;
56824;SDS011;42705;50.326;18.772;2023-04-06T05:22:57;81.60;;;33.60;;
56824;SDS011;42705;50.326;18.772;2023-04-06T05:28:20;81.00;;;32.90;;
56824;SDS011;42705;50.326;18.772;2023-04-06T05:33:42;90.20;;;36.30;;
56824;SDS011;42705;50.326;18.772;2023-04-06T05:39:07;85.90;;;35.70;;
56824;SDS011;42705;50.326;18.772;2023-04-06T05:44:33;78.70;;;32.90;;
56824;SDS011;42705;50.326;18.772;2023-04-06T05:50:06;74.10;;;32.90;;
56824;SDS011;42705;50.326;18.772;2023-04-06T05:55:31;72.30;;;33.10;;
56824;SDS011;42705;50.326;18.772;2023-04-06T06:01:03;81.00;;;32.20;;
56824;SDS011;42705;50.326;18.772;2023-04-06T06:06:33;63.00;;;28.30;;
56824;SDS011;42705;50.326;18.772;2023-04-06T06:12:17;65.60;;;28.60;;
56824;SDS011;42705;50.326;18.772;2023-04-06T06:17:39;56.00;;;27.40;;
56824;SDS011;42705;50.326;18.772;2023-04-06T06:23:02;58.00;;;25.10;;
56824;SDS011;42705;50.326;18.772;2023-04-06T06:28:25;66.30;;;26.90;;
56824;SDS011;42705;50.326;18.772;2023-04-06T06:33:50;60.60;;;28.00;;
56824;SDS011;42705;50.326;18.772;2023-04-06T06:39:14;48.00;;;21.60;;
56824;SDS011;42705;50.326;18.772;2023-04-06T06:44:36;42.80;;;22.00;;
56824;SDS011;42705;50.326;18.772;2023-04-06T06:49:58;39.30;;;17.90;;
56824;SDS011;42705;50.326;18.772;2023-04-06T06:55:20;29.40;;;16.50;;
56824;SDS011;42705;50.326;18.772;2023-04-06T07:00:42;26.00;;;12.90;;
56824;SDS011;42705;50.326;18.772;2023-04-06T07:06:04;21.50;;;12.10;;
56824;SDS011;42705;50.326;18.772;2023-04-06T07:11:26;24.30;;;11.10;;
56824;SDS011;42705;50.326;18.772;2023-04-06T07:16:50;16.10;;;9.10;;
56824;SDS011;42705;50.326;18.772;2023-04-06T07:22:12;16.70;;;9.20;;
56824;SDS011;42705;50.326;18.772;2023-04-06T07:27:34;13.20;;;8.00;;
56824;SDS011;42705;50.326;18.772;2023-04-06T07:32:57;16.20;;;8.60;;
56824;SDS011;42705;50.326;18.772;2023-04-06T07:38:21;17.20;;;9.10;;
56824;SDS011;42705;50.326;18.772;2023-04-06T07:43:45;18.40;;;9.60;;
56824;SDS011;42705;50.326;18.772;2023-04-06T07:49:07;17.30;;;9.50;;
56824;SDS011;42705;50.326;18.772;2023-04-06T07:54:30;20.70;;;10.00;;
56824;SDS011;42705;50.326;18.772;2023-04-06T07:59:52;12.80;;;7.80;;
56824;SDS011;42705;50.326;18.772;2023-04-06T08:05:14;15.50;;;9.50;;
56824;SDS011;42705;50.326;18.772;2023-04-06T08:10:36;16.00;;;9.80;;
56824;SDS011;42705;50.326;18.772;2023-04-06T08:15:58;14.70;;;8.20;;
56824;SDS011;42705;50.326;18.772;2023-04-06T08:21:21;15.50;;;9.10;;
56824;SDS011;42705;50.326;18.772;2023-04-06T08:26:43;14.30;;;8.60;;
56824;SDS011;42705;50.326;18.772;2023-04-06T08:32:05;14.70;;;8.40;;
56824;SDS011;42705;50.326;18.772;2023-04-06T08:37:27;14.40;;;8.70;;
56824;SDS011;42705;50.326;18.772;2023-04-06T08:42:50;17.20;;;9.80;;
56824;SDS011;42705;50.326;18.772;2023-04-06T08:48:15;15.00;;;9.00;;
56824;SDS011;42705;50.326;18.772;2023-04-06T08:53:38;14.30;;;9.20;;
56824;SDS011;42705;50.326;18.772;2023-04-06T08:59:01;14.20;;;8.70;;
56824;SDS011;42705;50.326;18.772;2023-04-06T09:04:26;17.80;;;9.60;;
56824;SDS011;42705;50.326;18.772;2023-04-06T09:09:48;19.20;;;8.30;;
56824;SDS011;42705;50.326;18.772;2023-04-06T09:15:19;15.50;;;8.90;;
56824;SDS011;42705;50.326;18.772;2023-04-06T09:20:42;12.90;;;7.40;;
56824;SDS011;42705;50.326;18.772;2023-04-06T09:26:05;15.20;;;9.30;;
56824;SDS011;42705;50.326;18.772;2023-04-06T09:31:37;13.50;;;8.30;;
56824;SDS011;42705;50.326;18.772;2023-04-06T09:36:59;17.10;;;9.20;;
56824;SDS011;42705;50.326;18.772;2023-04-06T09:42:24;20.70;;;9.40;;
56824;SDS011;42705;50.326;18.772;2023-04-06T09:47:47;13.80;;;9.00;;
56824;SDS011;42705;50.326;18.772;2023-04-06T09:53:09;20.40;;;9.70;;
56824;SDS011;42705;50.326;18.772;2023-04-06T09:58:33;20.80;;;10.60;;
56824;SDS011;42705;50.326;18.772;2023-04-06T10:09:47;14.60;;;9.30;;
56824;SDS011;42705;50.326;18.772;2023-04-06T10:20:40;15.00;;;9.50;;
56824;SDS011;42705;50.326;18.772;2023-04-06T10:26:15;20.40;;;9.60;;
56824;SDS011;42705;50.326;18.772;2023-04-06T10:31:41;16.10;;;10.20;;
56824;SDS011;42705;50.326;18.772;2023-04-06T10:37:12;15.50;;;9.60;;
56824;SDS011;42705;50.326;18.772;2023-04-06T10:42:38;19.80;;;10.60;;
56824;SDS011;42705;50.326;18.772;2023-04-06T10:48:00;13.30;;;9.00;;
56824;SDS011;42705;50.326;18.772;2023-04-06T10:53:23;12.90;;;8.50;;
56824;SDS011;42705;50.326;18.772;2023-04-06T10:58:52;15.90;;;8.50;;
56824;SDS011;42705;50.326;18.772;2023-04-06T11:04:17;10.30;;;6.90;;
56824;SDS011;42705;50.326;18.772;2023-04-06T11:15:03;11.10;;;7.30;;
56824;SDS011;42705;50.326;18.772;2023-04-06T11:20:28;13.40;;;8.30;;
56824;SDS011;42705;50.326;18.772;2023-04-06T11:25:50;11.60;;;7.10;;
56824;SDS011;42705;50.326;18.772;2023-04-06T11:31:13;7.80;;;5.60;;
56824;SDS011;42705;50.326;18.772;2023-04-06T11:36:35;8.90;;;5.50;;
56824;SDS011;42705;50.326;18.772;2023-04-06T11:41:58;8.70;;;5.10;;
56824;SDS011;42705;50.326;18.772;2023-04-06T11:47:35;10.60;;;6.20;;
56824;SDS011;42705;50.326;18.772;2023-04-06T11:53:01;11.00;;;6.80;;
56824;SDS011;42705;50.326;18.772;2023-04-06T11:58:26;12.50;;;6.20;;
56824;SDS011;42705;50.326;18.772;2023-04-06T12:03:49;11.70;;;7.30;;
56824;SDS011;42705;50.326;18.772;2023-04-06T12:09:11;13.40;;;7.10;;
56824;SDS011;42705;50.326;18.772;2023-04-06T12:14:33;8.80;;;6.40;;
56824;SDS011;42705;50.326;18.772;2023-04-06T12:19:55;7.60;;;5.50;;
56824;SDS011;42705;50.326;18.772;2023-04-06T12:25:17;10.90;;;6.60;;
56824;SDS011;42705;50.326;18.772;2023-04-06T12:30:39;10.60;;;6.50;;
56824;SDS011;42705;50.326;18.772;2023-04-06T12:36:04;11.80;;;6.60;;
56824;SDS011;42705;50.326;18.772;2023-04-06T12:41:32;9.50;;;6.30;;
56824;SDS011;42705;50.326;18.772;2023-04-06T12:46:54;13.00;;;7.10;;
56824;SDS011;42705;50.326;18.772;2023-04-06T12:52:18;9.60;;;6.60;;
56824;SDS011;42705;50.326;18.772;2023-04-06T12:57:40;12.30;;;7.50;;
56824;SDS011;42705;50.326;18.772;2023-04-06T13:03:03;12.80;;;8.20;;
56824;SDS011;42705;50.326;18.772;2023-04-06T13:08:25;14.90;;;9.60;;
56824;SDS011;42705;50.326;18.772;2023-04-06T13:13:47;17.90;;;9.50;;
56824;SDS011;42705;50.326;18.772;2023-04-06T13:19:09;18.20;;;10.10;;
56824;SDS011;42705;50.326;18.772;2023-04-06T13:24:32;14.10;;;8.90;;
56824;SDS011;42705;50.326;18.772;2023-04-06T13:29:54;17.90;;;9.40;;
56824;SDS011;42705;50.326;18.772;2023-04-06T13:35:17;11.10;;;8.00;;
56824;SDS011;42705;50.326;18.772;2023-04-06T13:40:40;9.90;;;7.20;;
56824;SDS011;42705;50.326;18.772;2023-04-06T13:46:02;12.10;;;8.20;;
56824;SDS011;42705;50.326;18.772;2023-04-06T13:51:24;12.20;;;7.70;;
56824;SDS011;42705;50.326;18.772;2023-04-06T13:56:48;13.70;;;7.50;;
56824;SDS011;42705;50.326;18.772;2023-04-06T14:02:10;13.60;;;7.80;;
56824;SDS011;42705;50.326;18.772;2023-04-06T14:07:32;16.10;;;9.00;;
56824;SDS011;42705;50.326;18.772;2023-04-06T14:12:54;15.20;;;8.70;;
56824;SDS011;42705;50.326;18.772;2023-04-06T14:18:17;15.90;;;9.70;;
56824;SDS011;42705;50.326;18.772;2023-04-06T14:23:38;13.50;;;8.90;;
56824;SDS011;42705;50.326;18.772;2023-04-06T14:29:01;17.30;;;10.30;;
56824;SDS011;42705;50.326;18.772;2023-04-06T14:34:23;17.90;;;10.30;;
56824;SDS011;42705;50.326;18.772;2023-04-06T14:39:45;17.20;;;9.90;;
56824;SDS011;42705;50.326;18.772;2023-04-06T14:45:07;15.00;;;9.80;;
56824;SDS011;42705;50.326;18.772;2023-04-06T14:50:30;19.80;;;10.30;;
56824;SDS011;42705;50.326;18.772;2023-04-06T14:55:52;17.80;;;10.50;;
56824;SDS011;42705;50.326;18.772;2023-04-06T15:01:14;18.10;;;11.20;;
56824;SDS011;42705;50.326;18.772;2023-04-06T15:06:36;19.50;;;11.10;;
56824;SDS011;42705;50.326;18.772;2023-04-06T15:11:58;20.40;;;12.20;;
56824;SDS011;42705;50.326;18.772;2023-04-06T15:17:22;17.10;;;10.70;;
56824;SDS011;42705;50.326;18.772;2023-04-06T15:22:47;17.90;;;11.00;;
56824;SDS011;42705;50.326;18.772;2023-04-06T15:28:12;22.50;;;12.20;;
56824;SDS011;42705;50.326;18.772;2023-04-06T15:33:35;20.50;;;11.90;;
56824;SDS011;42705;50.326;18.772;2023-04-06T15:39:01;18.80;;;12.10;;
56824;SDS011;42705;50.326;18.772;2023-04-06T15:44:25;23.20;;;14.10;;
56824;SDS011;42705;50.326;18.772;2023-04-06T15:49:49;20.80;;;12.80;;
56824;SDS011;42705;50.326;18.772;2023-04-06T15:55:11;23.00;;;14.50;;
56824;SDS011;42705;50.326;18.772;2023-04-06T16:00:33;21.70;;;13.60;;
56824;SDS011;42705;50.326;18.772;2023-04-06T16:05:56;22.70;;;14.30;;
56824;SDS011;42705;50.326;18.772;2023-04-06T16:11:18;21.50;;;12.20;;
56824;SDS011;42705;50.326;18.772;2023-04-06T16:16:40;20.50;;;11.60;;
56824;SDS011;42705;50.326;18.772;2023-04-06T16:22:05;16.80;;;11.00;;
56824;SDS011;42705;50.326;18.772;2023-04-06T16:27:27;18.30;;;10.10;;
56824;SDS011;42705;50.326;18.772;2023-04-06T16:32:49;25.50;;;13.10;;
56824;SDS011;42705;50.326;18.772;2023-04-06T16:38:12;22.40;;;11.10;;
56824;SDS011;42705;50.326;18.772;2023-04-06T16:49:00;27.00;;;13.80;;
56824;SDS011;42705;50.326;18.772;2023-04-06T16:54:24;28.10;;;16.10;;
56824;SDS011;42705;50.326;18.772;2023-04-06T16:59:46;27.30;;;13.20;;
56824;SDS011;42705;50.326;18.772;2023-04-06T17:05:08;32.90;;;16.20;;
56824;SDS011;42705;50.326;18.772;2023-04-06T17:10:30;36.70;;;17.70;;
56824;SDS011;42705;50.326;18.772;2023-04-06T17:15:52;27.30;;;14.70;;
56824;SDS011;42705;50.326;18.772;2023-04-06T17:21:14;27.40;;;13.70;;
56824;SDS011;42705;50.326;18.772;2023-04-06T17:26:37;26.50;;;16.50;;
56824;SDS011;42705;50.326;18.772;2023-04-06T17:31:59;32.00;;;16.20;;
56824;SDS011;42705;50.326;18.772;2023-04-06T17:37:21;33.80;;;17.40;;
56824;SDS011;42705;50.326;18.772;2023-04-06T17:42:43;32.60;;;17.50;;
56824;SDS011;42705;50.326;18.772;2023-04-06T17:48:06;40.30;;;21.10;;
56824;SDS011;42705;50.326;18.772;2023-04-06T17:59:20;38.40;;;21.10;;
56824;SDS011;42705;50.326;18.772;2023-04-06T18:04:42;53.40;;;23.60;;
56824;SDS011;42705;50.326;18.772;2023-04-06T18:10:05;46.90;;;23.80;;
56824;SDS011;42705;50.326;18.772;2023-04-06T18:15:28;40.10;;;21.40;;
56824;SDS011;42705;50.326;18.772;2023-04-06T18:20:52;47.00;;;23.80;;
56824;SDS011;42705;50.326;18.772;2023-04-06T18:26:15;36.20;;;21.30;;
56824;SDS011;42705;50.326;18.772;2023-04-06T18:31:39;35.90;;;20.40;;
56824;SDS011;42705;50.326;18.772;2023-04-06T18:37:01;33.10;;;20.90;;
56824;SDS011;42705;50.326;18.772;2023-04-06T18:42:24;38.60;;;22.90;;
56824;SDS011;42705;50.326;18.772;2023-04-06T18:53:09;29.00;;;17.20;;
56824;SDS011;42705;50.326;18.772;2023-04-06T18:58:32;28.70;;;17.90;;
56824;SDS011;42705;50.326;18.772;2023-04-06T19:03:55;27.60;;;16.70;;
56824;SDS011;42705;50.326;18.772;2023-04-06T19:09:19;30.80;;;19.00;;
56824;SDS011;42705;50.326;18.772;2023-04-06T19:20:12;35.20;;;18.80;;
56824;SDS011;42705;50.326;18.772;2023-04-06T19:25:35;25.40;;;16.50;;
56824;SDS011;42705;50.326;18.772;2023-04-06T19:30:58;26.40;;;16.80;;
56824;SDS011;42705;50.326;18.772;2023-04-06T19:36:22;33.30;;;19.50;;
56824;SDS011;42705;50.326;18.772;2023-04-06T19:41:44;33.10;;;18.40;;
56824;SDS011;42705;50.326;18.772;2023-04-06T19:47:06;29.50;;;17.30;;
56824;SDS011;42705;50.326;18.772;2023-04-06T19:52:29;30.90;;;17.60;;
56824;SDS011;42705;50.326;18.772;2023-04-06T19:57:51;33.50;;;19.70;;
56824;SDS011;42705;50.326;18.772;2023-04-06T20:03:13;30.30;;;18.40;;
56824;SDS011;42705;50.326;18.772;2023-04-06T20:08:36;32.80;;;20.30;;
56824;SDS011;42705;50.326;18.772;2023-04-06T20:13:59;36.00;;;21.10;;
56824;SDS011;42705;50.326;18.772;2023-04-06T20:19:22;41.10;;;22.20;;
56824;SDS011;42705;50.326;18.772;2023-04-06T20:24:44;39.20;;;22.60;;
56824;SDS011;42705;50.326;18.772;2023-04-06T20:30:06;40.30;;;22.10;;
56824;SDS011;42705;50.326;18.772;2023-04-06T20:35:29;37.80;;;21.70;;
56824;SDS011;42705;50.326;18.772;2023-04-06T20:40:55;33.80;;;20.30;;
56824;SDS011;42705;50.326;18.772;2023-04-06T20:46:20;31.70;;;19.90;;
56824;SDS011;42705;50.326;18.772;2023-04-06T20:51:42;33.20;;;20.30;;
56824;SDS011;42705;50.326;18.772;2023-04-06T20:57:04;34.00;;;19.60;;
56824;SDS011;42705;50.326;18.772;2023-04-06T21:02:26;31.40;;;18.80;;
56824;SDS011;42705;50.326;18.772;2023-04-06T21:07:48;31.00;;;19.10;;
56824;SDS011;42705;50.326;18.772;2023-04-06T21:13:10;36.70;;;20.80;;
56824;SDS011;42705;50.326;18.772;2023-04-06T21:18:32;31.10;;;18.60;;
56824;SDS011;42705;50.326;18.772;2023-04-06T21:23:54;31.30;;;19.20;;
56824;SDS011;42705;50.326;18.772;2023-04-06T21:29:17;32.80;;;20.80;;
56824;SDS011;42705;50.326;18.772;2023-04-06T21:34:40;34.80;;;18.60;;
56824;SDS011;42705;50.326;18.772;2023-04-06T21:40:03;36.50;;;20.30;;
56824;SDS011;42705;50.326;18.772;2023-04-06T21:45:26;31.80;;;20.00;;
56824;SDS011;42705;50.326;18.772;2023-04-06T21:50:48;33.10;;;19.10;;
56824;SDS011;42705;50.326;18.772;2023-04-06T21:56:09;33.80;;;20.00;;
56824;SDS011;42705;50.326;18.772;2023-04-06T22:01:31;34.30;;;19.50;;
56824;SDS011;42705;50.326;18.772;2023-04-06T22:06:53;27.30;;;18.30;;
56824;SDS011;42705;50.326;18.772;2023-04-06T22:12:15;29.80;;;18.00;;
56824;SDS011;42705;50.326;18.772;2023-04-06T22:17:37;33.40;;;19.00;;
56824;SDS011;42705;50.326;18.772;2023-04-06T22:22:59;28.80;;;18.30;;
56824;SDS011;42705;50.326;18.772;2023-04-06T22:28:20;29.40;;;18.00;;
56824;SDS011;42705;50.326;18.772;2023-04-06T22:33:42;32.00;;;19.10;;
56824;SDS011;42705;50.326;18.772;2023-04-06T22:39:04;29.50;;;18.50;;
56824;SDS011;42705;50.326;18.772;2023-04-06T22:44:26;28.70;;;17.50;;
56824;SDS011;42705;50.326;18.772;2023-04-06T22:49:48;32.20;;;20.00;;
56824;SDS011;42705;50.326;18.772;2023-04-06T22:55:10;31.00;;;18.50;;
56824;SDS011;42705;50.326;18.772;2023-04-06T23:00:32;31.80;;;19.10;;
56824;SDS011;42705;50.326;18.772;2023-04-06T23:05:54;33.20;;;20.20;;
56824;SDS011;42705;50.326;18.772;2023-04-06T23:11:16;30.80;;;18.90;;
56824;SDS011;42705;50.326;18.772;2023-04-06T23:16:37;30.50;;;19.10;;
56824;SDS011;42705;50.326;18.772;2023-04-06T23:21:59;35.00;;;20.50;;
56824;SDS011;42705;50.326;18.772;2023-04-06T23:27:22;33.10;;;19.50;;
56824;SDS011;42705;50.326;18.772;2023-04-06T23:32:44;31.70;;;18.60;;
56824;SDS011;42705;50.326;18.772;2023-04-06T23:38:06;32.50;;;18.90;;
56824;SDS011;42705;50.326;18.772;2023-04-06T23:43:27;31.40;;;18.80;;
56824;SDS011;42705;50.326;18.772;2023-04-06T23:48:49;29.80;;;19.00;;
56824;SDS011;42705;50.326;18.772;2023-04-06T23:54:11;31.20;;;18.70;;
56824;SDS011;42705;50.326;18.772;2023-04-06T23:59:33;28.70;;;17.80;;
